sensor_id;sensor_type;location;lat;lon;timestamp;P1;durP1;ratioP1;P2;durP2;ratioP2
73557;SDS011;61829;53.286;10.434;2023-05-10T00:00:21;4.63;;;2.78;;
73557;SDS011;61829;53.286;10.434;2023-05-10T00:03:07;5.88;;;2.83;;
73557;SDS011;61829;53.286;10.434;2023-05-10T00:05:33;5.22;;;2.80;;
73557;SDS011;61829;53.286;10.434;2023-05-10T00:07:59;6.03;;;2.70;;
73557;SDS011;61829;53.286;10.434;2023-05-10T00:10:25;7.35;;;2.67;;
73557;SDS011;61829;53.286;10.434;2023-05-10T00:12:50;4.55;;;2.65;;
73557;SDS011;61829;53.286;10.434;2023-05-10T00:15:16;6.07;;;2.72;;
73557;SDS011;61829;53.286;10.434;2023-05-10T00:17:42;4.60;;;2.65;;
73557;SDS011;61829;53.286;10.434;2023-05-10T00:20:11;5.97;;;2.70;;
73557;SDS011;61829;53.286;10.434;2023-05-10T00:22:43;4.60;;;2.85;;
73557;SDS011;61829;53.286;10.434;2023-05-10T00:25:10;6.35;;;2.95;;
73557;SDS011;61829;53.286;10.434;2023-05-10T00:27:37;4.75;;;2.58;;
73557;SDS011;61829;53.286;10.434;2023-05-10T00:30:03;5.60;;;2.70;;
73557;SDS011;61829;53.286;10.434;2023-05-10T00:32:29;4.20;;;2.78;;
73557;SDS011;61829;53.286;10.434;2023-05-10T00:34:56;5.07;;;2.70;;
73557;SDS011;61829;53.286;10.434;2023-05-10T00:37:21;4.47;;;2.63;;
73557;SDS011;61829;53.286;10.434;2023-05-10T00:39:47;4.10;;;2.65;;
73557;SDS011;61829;53.286;10.434;2023-05-10T00:42:13;5.63;;;2.85;;
73557;SDS011;61829;53.286;10.434;2023-05-10T00:44:40;4.88;;;2.70;;
73557;SDS011;61829;53.286;10.434;2023-05-10T00:47:06;5.13;;;2.90;;
73557;SDS011;61829;53.286;10.434;2023-05-10T00:49:32;6.63;;;2.80;;
73557;SDS011;61829;53.286;10.434;2023-05-10T00:51:58;3.72;;;2.50;;
73557;SDS011;61829;53.286;10.434;2023-05-10T00:54:24;4.15;;;2.45;;
73557;SDS011;61829;53.286;10.434;2023-05-10T00:56:50;6.00;;;2.95;;
73557;SDS011;61829;53.286;10.434;2023-05-10T00:59:16;5.25;;;2.60;;
73557;SDS011;61829;53.286;10.434;2023-05-10T01:01:43;5.32;;;2.80;;
73557;SDS011;61829;53.286;10.434;2023-05-10T01:04:11;6.70;;;2.70;;
73557;SDS011;61829;53.286;10.434;2023-05-10T01:06:38;5.15;;;2.92;;
73557;SDS011;61829;53.286;10.434;2023-05-10T01:09:07;4.95;;;2.58;;
73557;SDS011;61829;53.286;10.434;2023-05-10T01:14:21;5.68;;;3.15;;
73557;SDS011;61829;53.286;10.434;2023-05-10T01:16:49;4.07;;;2.67;;
73557;SDS011;61829;53.286;10.434;2023-05-10T01:27:24;4.38;;;2.55;;
73557;SDS011;61829;53.286;10.434;2023-05-10T01:35:17;5.35;;;2.72;;
73557;SDS011;61829;53.286;10.434;2023-05-10T01:37:56;4.95;;;3.03;;
73557;SDS011;61829;53.286;10.434;2023-05-10T01:43:28;5.25;;;3.03;;
73557;SDS011;61829;53.286;10.434;2023-05-10T01:46:04;5.82;;;2.83;;
73557;SDS011;61829;53.286;10.434;2023-05-10T01:48:40;5.55;;;2.85;;
73557;SDS011;61829;53.286;10.434;2023-05-10T01:51:13;8.80;;;2.90;;
73557;SDS011;61829;53.286;10.434;2023-05-10T01:53:42;4.55;;;2.90;;
73557;SDS011;61829;53.286;10.434;2023-05-10T01:56:10;4.82;;;3.00;;
73557;SDS011;61829;53.286;10.434;2023-05-10T01:58:38;6.47;;;3.30;;
73557;SDS011;61829;53.286;10.434;2023-05-10T02:01:09;5.53;;;2.80;;
73557;SDS011;61829;53.286;10.434;2023-05-10T02:03:35;5.53;;;3.08;;
73557;SDS011;61829;53.286;10.434;2023-05-10T02:06:04;4.63;;;2.90;;
73557;SDS011;61829;53.286;10.434;2023-05-10T02:08:30;4.40;;;2.92;;
73557;SDS011;61829;53.286;10.434;2023-05-10T02:10:58;4.05;;;2.55;;
73557;SDS011;61829;53.286;10.434;2023-05-10T02:13:25;5.20;;;2.50;;
73557;SDS011;61829;53.286;10.434;2023-05-10T02:15:53;4.63;;;3.10;;
73557;SDS011;61829;53.286;10.434;2023-05-10T02:18:20;4.82;;;2.88;;
73557;SDS011;61829;53.286;10.434;2023-05-10T02:20:49;4.85;;;2.92;;
73557;SDS011;61829;53.286;10.434;2023-05-10T02:23:17;4.72;;;2.60;;
73557;SDS011;61829;53.286;10.434;2023-05-10T02:25:45;4.57;;;2.83;;
73557;SDS011;61829;53.286;10.434;2023-05-10T02:28:13;6.28;;;3.05;;
73557;SDS011;61829;53.286;10.434;2023-05-10T02:30:40;9.75;;;3.30;;
73557;SDS011;61829;53.286;10.434;2023-05-10T02:35:34;4.63;;;2.95;;
73557;SDS011;61829;53.286;10.434;2023-05-10T02:38:01;6.43;;;2.92;;
73557;SDS011;61829;53.286;10.434;2023-05-10T02:40:28;4.88;;;2.75;;
73557;SDS011;61829;53.286;10.434;2023-05-10T02:42:55;5.95;;;2.95;;
73557;SDS011;61829;53.286;10.434;2023-05-10T02:45:23;8.18;;;3.28;;
73557;SDS011;61829;53.286;10.434;2023-05-10T02:47:53;8.10;;;3.33;;
73557;SDS011;61829;53.286;10.434;2023-05-10T02:50:20;4.75;;;2.83;;
73557;SDS011;61829;53.286;10.434;2023-05-10T02:55:15;7.72;;;2.85;;
73557;SDS011;61829;53.286;10.434;2023-05-10T02:57:55;5.30;;;2.72;;
73557;SDS011;61829;53.286;10.434;2023-05-10T03:00:24;6.18;;;2.75;;
73557;SDS011;61829;53.286;10.434;2023-05-10T03:02:50;5.40;;;2.88;;
73557;SDS011;61829;53.286;10.434;2023-05-10T03:05:19;4.13;;;2.90;;
73557;SDS011;61829;53.286;10.434;2023-05-10T03:07:45;6.10;;;3.13;;
73557;SDS011;61829;53.286;10.434;2023-05-10T03:10:12;6.93;;;3.08;;
73557;SDS011;61829;53.286;10.434;2023-05-10T03:18:04;8.68;;;3.50;;
73557;SDS011;61829;53.286;10.434;2023-05-10T03:20:45;5.97;;;2.88;;
73557;SDS011;61829;53.286;10.434;2023-05-10T03:25:39;10.75;;;3.30;;
73557;SDS011;61829;53.286;10.434;2023-05-10T03:28:08;4.82;;;3.15;;
73557;SDS011;61829;53.286;10.434;2023-05-10T03:30:35;4.50;;;2.88;;
73557;SDS011;61829;53.286;10.434;2023-05-10T03:33:05;4.95;;;3.25;;
73557;SDS011;61829;53.286;10.434;2023-05-10T03:35:32;4.07;;;2.92;;
73557;SDS011;61829;53.286;10.434;2023-05-10T03:37:57;7.18;;;3.28;;
73557;SDS011;61829;53.286;10.434;2023-05-10T03:40:24;6.07;;;3.10;;
73557;SDS011;61829;53.286;10.434;2023-05-10T03:42:51;4.90;;;2.90;;
73557;SDS011;61829;53.286;10.434;2023-05-10T03:45:17;4.60;;;2.88;;
73557;SDS011;61829;53.286;10.434;2023-05-10T03:47:43;3.85;;;2.67;;
73557;SDS011;61829;53.286;10.434;2023-05-10T03:50:08;6.07;;;3.40;;
73557;SDS011;61829;53.286;10.434;2023-05-10T03:52:35;7.47;;;3.17;;
73557;SDS011;61829;53.286;10.434;2023-05-10T03:55:01;5.90;;;3.17;;
73557;SDS011;61829;53.286;10.434;2023-05-10T03:57:29;4.85;;;2.80;;
73557;SDS011;61829;53.286;10.434;2023-05-10T03:59:55;5.47;;;2.90;;
73557;SDS011;61829;53.286;10.434;2023-05-10T04:02:21;7.03;;;3.15;;
73557;SDS011;61829;53.286;10.434;2023-05-10T04:04:47;4.97;;;3.13;;
73557;SDS011;61829;53.286;10.434;2023-05-10T04:07:13;4.47;;;2.88;;
73557;SDS011;61829;53.286;10.434;2023-05-10T04:09:40;8.73;;;3.88;;
73557;SDS011;61829;53.286;10.434;2023-05-10T04:12:06;6.95;;;3.10;;
73557;SDS011;61829;53.286;10.434;2023-05-10T04:14:32;6.15;;;3.30;;
73557;SDS011;61829;53.286;10.434;2023-05-10T04:16:58;6.38;;;2.75;;
73557;SDS011;61829;53.286;10.434;2023-05-10T04:19:28;5.30;;;3.15;;
73557;SDS011;61829;53.286;10.434;2023-05-10T04:21:54;6.35;;;3.10;;
73557;SDS011;61829;53.286;10.434;2023-05-10T04:24:20;5.43;;;2.67;;
73557;SDS011;61829;53.286;10.434;2023-05-10T04:26:46;5.40;;;2.70;;
73557;SDS011;61829;53.286;10.434;2023-05-10T04:29:12;9.93;;;3.10;;
73557;SDS011;61829;53.286;10.434;2023-05-10T04:31:38;5.10;;;3.03;;
73557;SDS011;61829;53.286;10.434;2023-05-10T04:34:04;4.63;;;2.90;;
73557;SDS011;61829;53.286;10.434;2023-05-10T04:36:30;4.25;;;2.75;;
73557;SDS011;61829;53.286;10.434;2023-05-10T04:38:58;5.80;;;3.20;;
73557;SDS011;61829;53.286;10.434;2023-05-10T04:41:23;5.15;;;3.15;;
73557;SDS011;61829;53.286;10.434;2023-05-10T04:46:16;4.32;;;2.80;;
73557;SDS011;61829;53.286;10.434;2023-05-10T04:48:42;5.15;;;2.95;;
73557;SDS011;61829;53.286;10.434;2023-05-10T04:51:08;6.68;;;3.10;;
73557;SDS011;61829;53.286;10.434;2023-05-10T04:53:34;5.53;;;3.03;;
73557;SDS011;61829;53.286;10.434;2023-05-10T04:56:00;5.90;;;2.90;;
73557;SDS011;61829;53.286;10.434;2023-05-10T04:58:26;5.82;;;3.13;;
73557;SDS011;61829;53.286;10.434;2023-05-10T05:00:52;4.22;;;2.80;;
73557;SDS011;61829;53.286;10.434;2023-05-10T05:03:18;5.25;;;3.10;;
73557;SDS011;61829;53.286;10.434;2023-05-10T05:05:43;6.20;;;3.22;;
73557;SDS011;61829;53.286;10.434;2023-05-10T05:08:10;5.30;;;3.10;;
73557;SDS011;61829;53.286;10.434;2023-05-10T05:10:36;4.13;;;2.70;;
73557;SDS011;61829;53.286;10.434;2023-05-10T05:13:01;6.15;;;2.80;;
73557;SDS011;61829;53.286;10.434;2023-05-10T05:15:27;7.75;;;2.97;;
73557;SDS011;61829;53.286;10.434;2023-05-10T05:17:53;4.25;;;2.65;;
73557;SDS011;61829;53.286;10.434;2023-05-10T05:20:19;5.65;;;3.03;;
73557;SDS011;61829;53.286;10.434;2023-05-10T05:22:45;4.85;;;2.85;;
73557;SDS011;61829;53.286;10.434;2023-05-10T05:25:11;4.63;;;2.80;;
73557;SDS011;61829;53.286;10.434;2023-05-10T05:27:37;4.32;;;2.78;;
73557;SDS011;61829;53.286;10.434;2023-05-10T05:30:03;6.20;;;2.80;;
73557;SDS011;61829;53.286;10.434;2023-05-10T05:32:29;5.22;;;2.92;;
73557;SDS011;61829;53.286;10.434;2023-05-10T05:34:55;6.63;;;2.95;;
73557;SDS011;61829;53.286;10.434;2023-05-10T05:37:21;4.18;;;2.58;;
73557;SDS011;61829;53.286;10.434;2023-05-10T05:39:48;5.32;;;3.13;;
73557;SDS011;61829;53.286;10.434;2023-05-10T05:42:14;3.83;;;2.75;;
73557;SDS011;61829;53.286;10.434;2023-05-10T05:47:07;4.60;;;3.00;;
73557;SDS011;61829;53.286;10.434;2023-05-10T05:49:33;5.07;;;3.08;;
73557;SDS011;61829;53.286;10.434;2023-05-10T05:52:02;5.38;;;3.05;;
73557;SDS011;61829;53.286;10.434;2023-05-10T05:54:29;5.43;;;2.80;;
73557;SDS011;61829;53.286;10.434;2023-05-10T05:56:56;5.40;;;2.80;;
73557;SDS011;61829;53.286;10.434;2023-05-10T05:59:24;5.88;;;2.92;;
73557;SDS011;61829;53.286;10.434;2023-05-10T06:01:50;5.93;;;2.72;;
73557;SDS011;61829;53.286;10.434;2023-05-10T06:04:16;5.32;;;2.95;;
73557;SDS011;61829;53.286;10.434;2023-05-10T06:06:43;5.22;;;3.40;;
73557;SDS011;61829;53.286;10.434;2023-05-10T06:09:08;7.50;;;2.80;;
73557;SDS011;61829;53.286;10.434;2023-05-10T06:11:35;4.65;;;2.92;;
73557;SDS011;61829;53.286;10.434;2023-05-10T06:14:03;4.78;;;3.08;;
73557;SDS011;61829;53.286;10.434;2023-05-10T06:16:30;5.50;;;3.50;;
73557;SDS011;61829;53.286;10.434;2023-05-10T06:21:22;5.15;;;3.28;;
73557;SDS011;61829;53.286;10.434;2023-05-10T06:23:48;6.30;;;3.03;;
73557;SDS011;61829;53.286;10.434;2023-05-10T06:26:14;4.65;;;2.95;;
73557;SDS011;61829;53.286;10.434;2023-05-10T06:28:40;4.75;;;3.40;;
73557;SDS011;61829;53.286;10.434;2023-05-10T06:31:06;5.63;;;3.13;;
73557;SDS011;61829;53.286;10.434;2023-05-10T06:33:32;5.63;;;3.05;;
73557;SDS011;61829;53.286;10.434;2023-05-10T06:35:58;5.53;;;2.95;;
73557;SDS011;61829;53.286;10.434;2023-05-10T06:38:24;7.55;;;3.30;;
73557;SDS011;61829;53.286;10.434;2023-05-10T06:40:50;4.78;;;3.15;;
73557;SDS011;61829;53.286;10.434;2023-05-10T06:43:16;5.43;;;3.50;;
73557;SDS011;61829;53.286;10.434;2023-05-10T06:45:42;6.70;;;3.15;;
73557;SDS011;61829;53.286;10.434;2023-05-10T06:48:08;4.88;;;3.25;;
73557;SDS011;61829;53.286;10.434;2023-05-10T06:50:34;7.55;;;2.95;;
73557;SDS011;61829;53.286;10.434;2023-05-10T06:53:00;4.88;;;3.00;;
73557;SDS011;61829;53.286;10.434;2023-05-10T06:55:27;4.28;;;3.08;;
73557;SDS011;61829;53.286;10.434;2023-05-10T06:57:54;4.60;;;3.03;;
73557;SDS011;61829;53.286;10.434;2023-05-10T07:00:21;4.82;;;3.13;;
73557;SDS011;61829;53.286;10.434;2023-05-10T07:05:13;4.97;;;3.00;;
73557;SDS011;61829;53.286;10.434;2023-05-10T07:07:39;4.38;;;3.00;;
73557;SDS011;61829;53.286;10.434;2023-05-10T07:10:05;5.63;;;3.20;;
73557;SDS011;61829;53.286;10.434;2023-05-10T07:12:32;4.70;;;2.88;;
73557;SDS011;61829;53.286;10.434;2023-05-10T07:14:58;6.35;;;3.05;;
73557;SDS011;61829;53.286;10.434;2023-05-10T07:17:27;6.10;;;3.45;;
73557;SDS011;61829;53.286;10.434;2023-05-10T07:19:53;6.13;;;3.00;;
73557;SDS011;61829;53.286;10.434;2023-05-10T07:22:19;5.40;;;3.00;;
73557;SDS011;61829;53.286;10.434;2023-05-10T07:24:45;5.40;;;3.00;;
73557;SDS011;61829;53.286;10.434;2023-05-10T07:27:11;7.07;;;2.95;;
73557;SDS011;61829;53.286;10.434;2023-05-10T07:32:05;6.72;;;3.38;;
73557;SDS011;61829;53.286;10.434;2023-05-10T07:34:31;4.40;;;3.00;;
73557;SDS011;61829;53.286;10.434;2023-05-10T07:36:58;7.45;;;2.88;;
73557;SDS011;61829;53.286;10.434;2023-05-10T07:39:24;4.82;;;3.30;;
73557;SDS011;61829;53.286;10.434;2023-05-10T07:41:51;5.82;;;2.95;;
73557;SDS011;61829;53.286;10.434;2023-05-10T07:44:17;7.63;;;3.03;;
73557;SDS011;61829;53.286;10.434;2023-05-10T07:46:46;7.80;;;3.67;;
73557;SDS011;61829;53.286;10.434;2023-05-10T07:49:13;6.05;;;2.90;;
73557;SDS011;61829;53.286;10.434;2023-05-10T07:51:39;4.15;;;2.75;;
73557;SDS011;61829;53.286;10.434;2023-05-10T07:54:05;4.80;;;3.03;;
73557;SDS011;61829;53.286;10.434;2023-05-10T07:56:31;5.47;;;2.90;;
73557;SDS011;61829;53.286;10.434;2023-05-10T07:58:58;3.95;;;2.78;;
73557;SDS011;61829;53.286;10.434;2023-05-10T08:01:26;4.88;;;3.08;;
73557;SDS011;61829;53.286;10.434;2023-05-10T08:03:55;4.57;;;3.10;;
73557;SDS011;61829;53.286;10.434;2023-05-10T08:06:21;12.30;;;2.70;;
73557;SDS011;61829;53.286;10.434;2023-05-10T08:08:47;4.90;;;3.00;;
73557;SDS011;61829;53.286;10.434;2023-05-10T08:11:19;4.85;;;2.95;;
73557;SDS011;61829;53.286;10.434;2023-05-10T08:13:47;4.85;;;2.88;;
73557;SDS011;61829;53.286;10.434;2023-05-10T08:16:14;7.78;;;2.85;;
73557;SDS011;61829;53.286;10.434;2023-05-10T08:18:41;4.10;;;2.90;;
73557;SDS011;61829;53.286;10.434;2023-05-10T08:21:06;6.15;;;3.03;;
73557;SDS011;61829;53.286;10.434;2023-05-10T08:23:33;5.65;;;3.08;;
73557;SDS011;61829;53.286;10.434;2023-05-10T08:25:59;5.90;;;3.03;;
73557;SDS011;61829;53.286;10.434;2023-05-10T08:28:26;5.93;;;2.92;;
73557;SDS011;61829;53.286;10.434;2023-05-10T08:30:52;6.78;;;3.15;;
73557;SDS011;61829;53.286;10.434;2023-05-10T08:33:18;6.53;;;3.20;;
73557;SDS011;61829;53.286;10.434;2023-05-10T08:35:44;4.95;;;3.03;;
73557;SDS011;61829;53.286;10.434;2023-05-10T08:38:10;5.30;;;2.90;;
73557;SDS011;61829;53.286;10.434;2023-05-10T08:40:36;6.80;;;3.15;;
73557;SDS011;61829;53.286;10.434;2023-05-10T08:43:07;9.18;;;3.10;;
73557;SDS011;61829;53.286;10.434;2023-05-10T08:45:38;5.80;;;3.22;;
73557;SDS011;61829;53.286;10.434;2023-05-10T08:48:07;5.60;;;2.95;;
73557;SDS011;61829;53.286;10.434;2023-05-10T08:50:38;6.70;;;3.10;;
73557;SDS011;61829;53.286;10.434;2023-05-10T08:53:12;5.30;;;3.20;;
73557;SDS011;61829;53.286;10.434;2023-05-10T08:55:39;9.05;;;3.42;;
73557;SDS011;61829;53.286;10.434;2023-05-10T08:58:07;6.53;;;3.28;;
73557;SDS011;61829;53.286;10.434;2023-05-10T09:00:34;4.57;;;3.17;;
73557;SDS011;61829;53.286;10.434;2023-05-10T09:03:03;5.40;;;3.42;;
73557;SDS011;61829;53.286;10.434;2023-05-10T09:05:29;6.65;;;2.85;;
73557;SDS011;61829;53.286;10.434;2023-05-10T09:07:56;5.63;;;3.70;;
73557;SDS011;61829;53.286;10.434;2023-05-10T09:10:23;5.97;;;3.03;;
73557;SDS011;61829;53.286;10.434;2023-05-10T09:12:53;5.10;;;3.33;;
73557;SDS011;61829;53.286;10.434;2023-05-10T09:15:21;8.43;;;3.67;;
73557;SDS011;61829;53.286;10.434;2023-05-10T09:17:47;5.57;;;3.58;;
73557;SDS011;61829;53.286;10.434;2023-05-10T09:20:15;5.72;;;3.20;;
73557;SDS011;61829;53.286;10.434;2023-05-10T09:22:43;5.15;;;3.35;;
73557;SDS011;61829;53.286;10.434;2023-05-10T09:27:39;6.20;;;3.38;;
73557;SDS011;61829;53.286;10.434;2023-05-10T09:30:07;5.00;;;3.30;;
73557;SDS011;61829;53.286;10.434;2023-05-10T09:32:41;10.63;;;4.05;;
73557;SDS011;61829;53.286;10.434;2023-05-10T09:37:39;7.13;;;3.53;;
73557;SDS011;61829;53.286;10.434;2023-05-10T09:40:12;6.25;;;3.70;;
73557;SDS011;61829;53.286;10.434;2023-05-10T09:43:02;6.03;;;3.97;;
73557;SDS011;61829;53.286;10.434;2023-05-10T09:45:32;6.82;;;3.92;;
73557;SDS011;61829;53.286;10.434;2023-05-10T09:48:01;6.38;;;3.58;;
73557;SDS011;61829;53.286;10.434;2023-05-10T09:50:28;5.78;;;3.40;;
73557;SDS011;61829;53.286;10.434;2023-05-10T09:52:58;5.57;;;3.58;;
73557;SDS011;61829;53.286;10.434;2023-05-10T09:55:26;5.30;;;3.45;;
73557;SDS011;61829;53.286;10.434;2023-05-10T09:58:07;8.02;;;3.47;;
73557;SDS011;61829;53.286;10.434;2023-05-10T10:00:36;7.47;;;3.75;;
73557;SDS011;61829;53.286;10.434;2023-05-10T10:03:03;6.25;;;3.78;;
73557;SDS011;61829;53.286;10.434;2023-05-10T10:05:30;7.78;;;4.20;;
73557;SDS011;61829;53.286;10.434;2023-05-10T10:07:58;7.32;;;3.90;;
73557;SDS011;61829;53.286;10.434;2023-05-10T10:10:25;5.20;;;3.50;;
73557;SDS011;61829;53.286;10.434;2023-05-10T10:12:53;6.85;;;3.75;;
73557;SDS011;61829;53.286;10.434;2023-05-10T10:15:20;5.00;;;3.55;;
73557;SDS011;61829;53.286;10.434;2023-05-10T10:17:47;5.40;;;3.33;;
73557;SDS011;61829;53.286;10.434;2023-05-10T10:20:14;8.05;;;3.60;;
73557;SDS011;61829;53.286;10.434;2023-05-10T10:22:41;5.57;;;4.20;;
73557;SDS011;61829;53.286;10.434;2023-05-10T10:25:10;6.97;;;4.03;;
73557;SDS011;61829;53.286;10.434;2023-05-10T10:36:02;9.20;;;3.92;;
73557;SDS011;61829;53.286;10.434;2023-05-10T10:38:36;7.75;;;4.88;;
73557;SDS011;61829;53.286;10.434;2023-05-10T10:41:29;10.10;;;5.55;;
73557;SDS011;61829;53.286;10.434;2023-05-10T10:46:59;7.35;;;4.30;;
73557;SDS011;61829;53.286;10.434;2023-05-10T10:52:35;10.65;;;4.65;;
73557;SDS011;61829;53.286;10.434;2023-05-10T10:57:42;7.28;;;4.95;;
73557;SDS011;61829;53.286;10.434;2023-05-10T11:02:47;9.10;;;4.95;;
73557;SDS011;61829;53.286;10.434;2023-05-10T11:07:53;8.68;;;4.80;;
73557;SDS011;61829;53.286;10.434;2023-05-10T11:10:21;7.55;;;5.18;;
73557;SDS011;61829;53.286;10.434;2023-05-10T11:13:00;8.48;;;5.22;;
73557;SDS011;61829;53.286;10.434;2023-05-10T11:15:34;7.68;;;5.55;;
73557;SDS011;61829;53.286;10.434;2023-05-10T11:18:24;7.50;;;5.10;;
73557;SDS011;61829;53.286;10.434;2023-05-10T11:20:51;8.35;;;5.55;;
73557;SDS011;61829;53.286;10.434;2023-05-10T11:23:20;7.45;;;5.70;;
73557;SDS011;61829;53.286;10.434;2023-05-10T11:25:47;9.60;;;5.97;;
73557;SDS011;61829;53.286;10.434;2023-05-10T11:28:14;8.63;;;5.93;;
73557;SDS011;61829;53.286;10.434;2023-05-10T11:30:43;7.53;;;5.68;;
73557;SDS011;61829;53.286;10.434;2023-05-10T11:33:10;9.63;;;6.32;;
73557;SDS011;61829;53.286;10.434;2023-05-10T11:35:41;8.10;;;5.88;;
73557;SDS011;61829;53.286;10.434;2023-05-10T11:38:07;7.90;;;5.18;;
73557;SDS011;61829;53.286;10.434;2023-05-10T11:40:35;8.80;;;5.57;;
73557;SDS011;61829;53.286;10.434;2023-05-10T11:43:02;9.15;;;5.72;;
73557;SDS011;61829;53.286;10.434;2023-05-10T11:45:29;8.82;;;5.20;;
73557;SDS011;61829;53.286;10.434;2023-05-10T11:47:58;7.80;;;5.38;;
73557;SDS011;61829;53.286;10.434;2023-05-10T11:50:25;8.88;;;5.70;;
73557;SDS011;61829;53.286;10.434;2023-05-10T11:52:54;9.75;;;6.20;;
73557;SDS011;61829;53.286;10.434;2023-05-10T11:55:22;8.68;;;5.68;;
73557;SDS011;61829;53.286;10.434;2023-05-10T11:57:53;8.15;;;5.50;;
73557;SDS011;61829;53.286;10.434;2023-05-10T12:00:20;8.48;;;5.40;;
73557;SDS011;61829;53.286;10.434;2023-05-10T12:02:46;8.63;;;6.20;;
73557;SDS011;61829;53.286;10.434;2023-05-10T12:05:13;7.85;;;5.55;;
73557;SDS011;61829;53.286;10.434;2023-05-10T12:07:40;8.05;;;5.78;;
73557;SDS011;61829;53.286;10.434;2023-05-10T12:10:10;6.88;;;4.68;;
73557;SDS011;61829;53.286;10.434;2023-05-10T12:12:42;7.25;;;5.47;;
73557;SDS011;61829;53.286;10.434;2023-05-10T12:15:10;7.57;;;5.40;;
73557;SDS011;61829;53.286;10.434;2023-05-10T12:17:38;7.72;;;5.55;;
73557;SDS011;61829;53.286;10.434;2023-05-10T12:20:23;7.93;;;5.85;;
73557;SDS011;61829;53.286;10.434;2023-05-10T12:22:50;8.02;;;5.22;;
73557;SDS011;61829;53.286;10.434;2023-05-10T12:25:18;7.65;;;5.78;;
73557;SDS011;61829;53.286;10.434;2023-05-10T12:27:52;6.75;;;5.38;;
73557;SDS011;61829;53.286;10.434;2023-05-10T12:30:24;8.90;;;5.82;;
73557;SDS011;61829;53.286;10.434;2023-05-10T12:32:52;8.27;;;5.90;;
73557;SDS011;61829;53.286;10.434;2023-05-10T12:35:18;9.88;;;6.22;;
73557;SDS011;61829;53.286;10.434;2023-05-10T12:37:50;8.88;;;6.38;;
73557;SDS011;61829;53.286;10.434;2023-05-10T12:40:17;9.10;;;6.20;;
73557;SDS011;61829;53.286;10.434;2023-05-10T12:42:42;8.52;;;6.10;;
73557;SDS011;61829;53.286;10.434;2023-05-10T12:45:10;8.85;;;5.63;;
73557;SDS011;61829;53.286;10.434;2023-05-10T12:47:39;10.10;;;5.80;;
73557;SDS011;61829;53.286;10.434;2023-05-10T12:50:05;7.18;;;4.97;;
73557;SDS011;61829;53.286;10.434;2023-05-10T12:52:31;6.53;;;5.10;;
73557;SDS011;61829;53.286;10.434;2023-05-10T12:54:58;9.55;;;5.97;;
73557;SDS011;61829;53.286;10.434;2023-05-10T12:57:25;9.73;;;5.85;;
73557;SDS011;61829;53.286;10.434;2023-05-10T12:59:51;7.25;;;5.53;;
73557;SDS011;61829;53.286;10.434;2023-05-10T13:02:16;9.13;;;6.28;;
73557;SDS011;61829;53.286;10.434;2023-05-10T13:04:44;8.63;;;6.03;;
73557;SDS011;61829;53.286;10.434;2023-05-10T13:07:12;8.13;;;6.07;;
73557;SDS011;61829;53.286;10.434;2023-05-10T13:09:39;7.70;;;5.82;;
73557;SDS011;61829;53.286;10.434;2023-05-10T13:12:08;9.38;;;6.18;;
73557;SDS011;61829;53.286;10.434;2023-05-10T13:14:34;7.47;;;4.95;;
73557;SDS011;61829;53.286;10.434;2023-05-10T13:17:00;7.20;;;4.93;;
73557;SDS011;61829;53.286;10.434;2023-05-10T13:19:26;7.22;;;4.75;;
73557;SDS011;61829;53.286;10.434;2023-05-10T13:21:51;6.55;;;4.70;;
73557;SDS011;61829;53.286;10.434;2023-05-10T13:24:17;5.95;;;4.18;;
73557;SDS011;61829;53.286;10.434;2023-05-10T13:26:43;6.60;;;4.38;;
73557;SDS011;61829;53.286;10.434;2023-05-10T13:29:09;6.20;;;4.75;;
73557;SDS011;61829;53.286;10.434;2023-05-10T13:34:04;7.55;;;4.40;;
73557;SDS011;61829;53.286;10.434;2023-05-10T13:36:30;6.00;;;4.60;;
73557;SDS011;61829;53.286;10.434;2023-05-10T13:38:57;6.03;;;4.40;;
73557;SDS011;61829;53.286;10.434;2023-05-10T13:41:22;7.78;;;4.95;;
73557;SDS011;61829;53.286;10.434;2023-05-10T13:43:48;5.88;;;4.47;;
73557;SDS011;61829;53.286;10.434;2023-05-10T13:46:14;6.57;;;4.40;;
73557;SDS011;61829;53.286;10.434;2023-05-10T13:48:40;7.30;;;4.20;;
73557;SDS011;61829;53.286;10.434;2023-05-10T13:51:06;5.65;;;4.10;;
73557;SDS011;61829;53.286;10.434;2023-05-10T13:53:32;6.40;;;4.03;;
73557;SDS011;61829;53.286;10.434;2023-05-10T13:55:58;7.28;;;4.05;;
73557;SDS011;61829;53.286;10.434;2023-05-10T13:58:24;5.38;;;3.70;;
73557;SDS011;61829;53.286;10.434;2023-05-10T14:00:50;5.22;;;3.85;;
73557;SDS011;61829;53.286;10.434;2023-05-10T14:03:16;6.05;;;3.78;;
73557;SDS011;61829;53.286;10.434;2023-05-10T14:05:42;5.25;;;3.60;;
73557;SDS011;61829;53.286;10.434;2023-05-10T14:08:08;6.85;;;3.70;;
73557;SDS011;61829;53.286;10.434;2023-05-10T14:10:36;4.72;;;3.33;;
73557;SDS011;61829;53.286;10.434;2023-05-10T14:13:05;4.97;;;3.50;;
73557;SDS011;61829;53.286;10.434;2023-05-10T14:15:31;5.57;;;3.55;;
73557;SDS011;61829;53.286;10.434;2023-05-10T14:17:57;5.90;;;3.88;;
73557;SDS011;61829;53.286;10.434;2023-05-10T14:20:23;4.72;;;3.38;;
73557;SDS011;61829;53.286;10.434;2023-05-10T14:22:49;5.20;;;3.50;;
73557;SDS011;61829;53.286;10.434;2023-05-10T14:25:15;5.25;;;3.60;;
73557;SDS011;61829;53.286;10.434;2023-05-10T14:30:08;5.00;;;3.40;;
73557;SDS011;61829;53.286;10.434;2023-05-10T14:32:34;4.78;;;3.20;;
73557;SDS011;61829;53.286;10.434;2023-05-10T14:35:02;4.18;;;2.80;;
73557;SDS011;61829;53.286;10.434;2023-05-10T14:39:54;5.00;;;3.00;;
73557;SDS011;61829;53.286;10.434;2023-05-10T14:42:21;5.47;;;3.17;;
73557;SDS011;61829;53.286;10.434;2023-05-10T14:44:48;3.88;;;2.88;;
73557;SDS011;61829;53.286;10.434;2023-05-10T14:47:14;4.38;;;2.97;;
73557;SDS011;61829;53.286;10.434;2023-05-10T14:49:41;4.88;;;2.70;;
73557;SDS011;61829;53.286;10.434;2023-05-10T14:52:07;4.07;;;2.88;;
73557;SDS011;61829;53.286;10.434;2023-05-10T14:54:33;4.82;;;2.90;;
73557;SDS011;61829;53.286;10.434;2023-05-10T14:56:59;3.47;;;2.35;;
73557;SDS011;61829;53.286;10.434;2023-05-10T14:59:25;5.20;;;2.42;;
73557;SDS011;61829;53.286;10.434;2023-05-10T15:01:52;4.28;;;2.75;;
73557;SDS011;61829;53.286;10.434;2023-05-10T15:04:17;3.28;;;2.45;;
73557;SDS011;61829;53.286;10.434;2023-05-10T15:06:43;3.45;;;2.33;;
73557;SDS011;61829;53.286;10.434;2023-05-10T15:09:09;3.72;;;2.50;;
73557;SDS011;61829;53.286;10.434;2023-05-10T15:11:35;5.13;;;2.40;;
73557;SDS011;61829;53.286;10.434;2023-05-10T15:14:01;3.60;;;2.28;;
73557;SDS011;61829;53.286;10.434;2023-05-10T15:16:27;2.92;;;2.08;;
73557;SDS011;61829;53.286;10.434;2023-05-10T15:18:53;3.78;;;2.38;;
73557;SDS011;61829;53.286;10.434;2023-05-10T15:21:19;3.47;;;2.40;;
73557;SDS011;61829;53.286;10.434;2023-05-10T15:23:45;5.10;;;2.33;;
73557;SDS011;61829;53.286;10.434;2023-05-10T15:26:11;5.00;;;2.30;;
73557;SDS011;61829;53.286;10.434;2023-05-10T15:28:36;3.20;;;2.30;;
73557;SDS011;61829;53.286;10.434;2023-05-10T15:31:02;3.20;;;2.38;;
73557;SDS011;61829;53.286;10.434;2023-05-10T15:33:28;2.58;;;1.73;;
73557;SDS011;61829;53.286;10.434;2023-05-10T15:35:54;2.70;;;1.90;;
73557;SDS011;61829;53.286;10.434;2023-05-10T15:38:20;3.35;;;2.47;;
73557;SDS011;61829;53.286;10.434;2023-05-10T15:40:46;3.53;;;2.30;;
73557;SDS011;61829;53.286;10.434;2023-05-10T15:43:12;5.53;;;2.95;;
73557;SDS011;61829;53.286;10.434;2023-05-10T15:45:38;3.45;;;2.20;;
73557;SDS011;61829;53.286;10.434;2023-05-10T15:48:04;3.17;;;2.03;;
73557;SDS011;61829;53.286;10.434;2023-05-10T15:50:30;4.00;;;2.50;;
73557;SDS011;61829;53.286;10.434;2023-05-10T15:52:56;3.38;;;2.20;;